Terminal Aerodrome Forecast
Issued by NWS Jackson, KY

Home | Current Version | Previous Version | Text Only | Print | Product List | Glossary On
Versions: 1 2 3 4 5 6 7 8 9 10 11 12 13 14 15 16 17 18 19
468
FTUS43 KJKL 221300 AAB
TAFJKL
TAF AMD
KJKL 221300Z 2213/2312 14002KT 4SM -SHRA OVC040
     FM221400 15002KT P6SM VCSH OVC025
     FM221700 16003KT P6SM OVC040=

USA.gov is the U.S. government's official web portal to all federal, state and local government web resources and services.